If you wish to contribute or participate in the discussions about articles you are invited to join SKYbrary as a registered user

 Actions

Akhiok Airport

From SKYbrary Wiki

PAKH
Airport
ICAO: PAKH – IATA: AKK
Summary
Name Akhiok Airport
Region North America
Territory Alaska US.gif
Location Akhiok, Alaska
Serving Akhiok
Elevation 13.411 m
44 ft
44 ft13.411 m
Type small airport
Coordinates 56° 56' 19.00" N, 154° 10' 57.00" W
Runways
Designator Length Width Surface ROPS
4/22 951 m3,120.079 ft
15 m49.213 ft
GRAVEL-G /


METAR
Observation PAKH 140156Z AUTO 26005KT 10SM FEW009 SCT019 SCT041 M02/M03 A2933 RMK AO2 UPB44E54SNB02E44 SLP933 P0002 T10171033 FZRANO $
Station AKHIOK
Date/Time 14 December 2018 01:56:00
Wind direction 260°
Wind speed 05 kts
Lowest cloud amount few clouds
Temperature
Dew point
Humidity 88%
QNH hPa
Weather condition n/a

Maps

Terrain

Loading map...

Airport Layout

Loading map...


Accidents & Serious Incidents at or in vicinity of PAKH

None on SKYbrary